Time;durP1;ratioP1;P1;durP2;ratioP2;P2;SDS_P1;SDS_P2;PMS_P1;PMS_P2;Temp;Humidity;BMP_temperature;BMP_pressure;BME280_temperature;BME280_humidity;BME280_pressure;Samples;Min_cycle;Max_cycle;Signal;HPM_P1;HPM_P2
2021/07/21 00:01:50;;;;;;;10.27;6.97;;;23.80;99.90;;;;;;5069179;28;20056;-76
2021/07/21 00:04:15;;;;;;;8.30;6.82;;;23.80;99.90;;;;;;5070367;28;20024;-76
2021/07/21 00:06:41;;;;;;;10.77;7.05;;;23.80;99.90;;;;;;5069597;28;20141;-76
2021/07/21 00:09:07;;;;;;;9.85;7.53;;;23.80;99.90;;;;;;5070385;28;20025;-76
2021/07/21 00:14:19;;;;;;;9.48;7.22;;;23.80;99.90;;;;;;5070080;28;20055;-76
2021/07/21 00:17:00;;;;;;;9.30;7.22;;;23.80;99.90;;;;;;5068341;28;20028;-76
2021/07/21 00:22:12;;;;;;;9.05;7.22;;;23.80;99.90;;;;;;5073781;28;20027;-76
2021/07/21 00:24:42;;;;;;;9.43;6.85;;;23.80;99.80;;;;;;5073097;28;20120;-76
2021/07/21 00:27:08;;;;;;;9.63;6.88;;;23.80;99.80;;;;;;5073626;28;20020;-76
2021/07/21 00:29:34;;;;;;;8.45;6.65;;;23.70;99.80;;;;;;5059221;28;20024;-76
2021/07/21 00:32:01;;;;;;;9.55;6.78;;;23.70;99.80;;;;;;5073161;28;20055;-76
2021/07/21 00:34:26;;;;;;;8.48;6.22;;;23.70;99.80;;;;;;5073719;28;20024;-76
2021/07/21 00:36:52;;;;;;;9.00;6.82;;;23.80;99.80;;;;;;5074127;28;20511;-75
2021/07/21 00:39:18;;;;;;;8.73;6.63;;;23.70;99.70;;;;;;5073122;28;20020;-76
2021/07/21 00:41:46;;;;;;;10.02;6.68;;;23.80;99.70;;;;;;5073563;28;20036;-75
2021/07/21 00:44:12;;;;;;;8.82;6.85;;;23.80;99.70;;;;;;5072839;28;20554;-76
2021/07/21 00:46:38;;;;;;;9.88;7.03;;;23.70;99.60;;;;;;5073078;28;20028;-76
2021/07/21 00:49:04;;;;;;;8.07;6.68;;;23.70;99.60;;;;;;5073463;28;20046;-76
2021/07/21 00:51:30;;;;;;;8.65;6.82;;;23.70;99.60;;;;;;5073146;28;20040;-76
2021/07/21 00:53:55;;;;;;;8.77;6.63;;;23.70;99.50;;;;;;5073272;28;20395;-76
2021/07/21 00:56:21;;;;;;;10.35;6.75;;;23.70;99.50;;;;;;5073094;28;20099;-76
2021/07/21 00:58:47;;;;;;;8.45;6.82;;;23.70;99.50;;;;;;5071022;28;20059;-76
2021/07/21 01:01:13;;;;;;;9.05;6.90;;;23.70;99.50;;;;;;5072703;28;20107;-76
2021/07/21 01:03:39;;;;;;;9.77;6.68;;;23.70;99.50;;;;;;5072764;28;20107;-77
2021/07/21 01:06:05;;;;;;;7.70;6.15;;;23.70;99.50;;;;;;5072759;28;20473;-76
2021/07/21 01:08:31;;;;;;;7.90;6.22;;;23.70;99.40;;;;;;5072688;28;20035;-77
2021/07/21 01:11:16;;;;;;;9.38;6.97;;;23.70;99.40;;;;;;5073181;28;20052;-76
2021/07/21 01:14:05;;;;;;;7.93;6.30;;;23.70;99.40;;;;;;5072339;28;20143;-76
2021/07/21 01:16:39;;;;;;;9.50;6.70;;;23.70;99.30;;;;;;5071147;28;20078;-76
2021/07/21 01:19:23;;;;;;;11.52;7.03;;;23.70;99.30;;;;;;5072168;28;20051;-76
2021/07/21 01:22:01;;;;;;;8.40;6.65;;;23.60;99.20;;;;;;5072441;28;20453;-76
2021/07/21 01:24:48;;;;;;;13.55;7.32;;;23.70;99.20;;;;;;5071485;28;20090;-77
2021/07/21 01:27:40;;;;;;;7.78;6.38;;;23.70;99.20;;;;;;5072200;28;20024;-76
2021/07/21 01:30:16;;;;;;;9.05;6.80;;;23.60;99.20;;;;;;5072387;28;20060;-76
2021/07/21 01:32:46;;;;;;;9.93;7.30;;;23.60;99.10;;;;;;5071884;28;20105;-76
2021/07/21 01:35:23;;;;;;;8.85;6.78;;;23.60;99.20;;;;;;5072985;28;20097;-76
2021/07/21 01:37:57;;;;;;;7.50;6.20;;;23.60;99.10;;;;;;5072147;28;20763;-76
2021/07/21 01:40:29;;;;;;;9.07;6.13;;;23.60;99.10;;;;;;5072525;28;20055;-76
2021/07/21 01:43:00;;;;;;;7.30;5.65;;;23.60;99.00;;;;;;5072394;28;20072;-76
2021/07/21 01:45:29;;;;;;;7.95;6.25;;;23.60;99.10;;;;;;5070971;28;20063;-76
2021/07/21 01:47:58;;;;;;;9.57;6.57;;;23.60;99.00;;;;;;5072294;28;20056;-76
2021/07/21 01:50:25;;;;;;;8.70;6.10;;;23.60;98.90;;;;;;5072083;28;20111;-76
2021/07/21 01:52:52;;;;;;;8.63;6.82;;;23.60;98.90;;;;;;5071414;28;20072;-77
2021/07/21 01:55:21;;;;;;;7.60;6.35;;;23.60;98.90;;;;;;5071644;28;20025;-76
2021/07/21 01:57:47;;;;;;;9.10;6.93;;;23.60;98.90;;;;;;5071505;28;20574;-76
2021/07/21 02:00:14;;;;;;;9.60;7.07;;;23.60;98.90;;;;;;5071944;28;20017;-76
2021/07/21 02:02:43;;;;;;;7.15;6.43;;;23.60;98.90;;;;;;5070402;28;20036;-76
2021/07/21 02:05:10;;;;;;;9.07;6.75;;;23.60;98.90;;;;;;5070510;28;20626;-76
2021/07/21 02:07:40;;;;;;;8.82;6.28;;;23.60;98.80;;;;;;5071444;28;20032;-76
2021/07/21 02:10:06;;;;;;;8.80;6.75;;;23.60;98.80;;;;;;5070472;28;20490;-76
2021/07/21 02:12:36;;;;;;;10.00;6.20;;;23.60;98.80;;;;;;5071217;28;20058;-75
2021/07/21 02:15:02;;;;;;;7.15;6.15;;;23.60;98.80;;;;;;5070304;28;20471;-76
2021/07/21 02:17:28;;;;;;;9.13;6.40;;;23.60;98.70;;;;;;5071098;28;20047;-76
2021/07/21 02:19:54;;;;;;;8.65;6.63;;;23.50;98.70;;;;;;5071471;28;20481;-77
2021/07/21 02:22:21;;;;;;;8.77;6.72;;;23.50;98.70;;;;;;5071574;28;20025;-76
2021/07/21 02:24:47;;;;;;;9.65;6.88;;;23.60;98.70;;;;;;5071232;28;20029;-76
2021/07/21 02:27:14;;;;;;;9.20;6.40;;;23.50;98.70;;;;;;5071064;28;20480;-76
2021/07/21 02:29:41;;;;;;;9.32;6.55;;;23.60;98.70;;;;;;5071083;28;20019;-76
2021/07/21 02:32:18;;;;;;;8.60;6.43;;;23.60;98.70;;;;;;5070990;28;20117;-77
2021/07/21 02:34:44;;;;;;;8.13;6.25;;;23.60;98.70;;;;;;5069407;28;20435;-76
2021/07/21 02:37:15;;;;;;;10.07;6.75;;;23.60;98.60;;;;;;5069990;28;20123;-76
2021/07/21 02:39:43;;;;;;;8.30;6.78;;;23.50;98.60;;;;;;5069919;28;20455;-76
2021/07/21 02:42:08;;;;;;;8.65;6.63;;;23.50;98.60;;;;;;5070218;28;20081;-76
2021/07/21 02:44:34;;;;;;;9.05;6.75;;;23.50;98.60;;;;;;5071066;28;20029;-76
2021/07/21 02:47:00;;;;;;;7.50;6.10;;;23.50;98.80;;;;;;5070007;28;20051;-77
2021/07/21 02:49:26;;;;;;;9.05;6.60;;;23.50;98.50;;;;;;5071507;28;20024;-76
2021/07/21 02:51:57;;;;;;;7.35;5.97;;;23.50;98.30;;;;;;5071746;28;20028;-76
2021/07/21 02:54:48;;;;;;;8.23;6.47;;;23.50;98.40;;;;;;5071446;28;20066;-76
2021/07/21 02:57:24;;;;;;;8.95;6.80;;;23.50;98.40;;;;;;5071322;28;20020;-76
2021/07/21 02:59:53;;;;;;;9.65;6.20;;;23.50;98.30;;;;;;5068829;28;20557;-76
2021/07/21 03:02:22;;;;;;;9.57;6.80;;;23.50;98.50;;;;;;5069565;28;20550;-75
2021/07/21 03:04:50;;;;;;;9.50;6.90;;;23.50;98.70;;;;;;5070698;28;20115;-76
2021/07/21 03:07:17;;;;;;;7.93;6.50;;;23.50;98.20;;;;;;5070233;28;20028;-76
2021/07/21 03:09:43;;;;;;;8.23;6.40;;;23.50;98.40;;;;;;5070834;28;20020;-76
2021/07/21 03:12:13;;;;;;;8.10;6.38;;;23.50;98.40;;;;;;5071038;28;20028;-76
2021/07/21 03:14:41;;;;;;;9.23;6.63;;;23.50;98.50;;;;;;5070965;28;20028;-76
2021/07/21 03:17:08;;;;;;;7.50;6.18;;;23.50;98.30;;;;;;5070633;28;20025;-76
2021/07/21 03:19:38;;;;;;;6.57;5.75;;;23.50;98.40;;;;;;5069747;28;20070;-76
2021/07/21 03:22:04;;;;;;;9.05;6.38;;;23.50;98.30;;;;;;5069958;28;20028;-76
2021/07/21 03:24:31;;;;;;;9.15;6.75;;;23.50;98.10;;;;;;5070383;28;20025;-76
2021/07/21 03:26:58;;;;;;;8.82;6.53;;;23.50;98.40;;;;;;5071008;28;20024;-76
2021/07/21 03:29:28;;;;;;;8.05;6.32;;;23.50;98.40;;;;;;5071116;28;20017;-76
2021/07/21 03:31:54;;;;;;;8.02;6.68;;;23.50;98.20;;;;;;5069942;28;20060;-76
2021/07/21 03:34:22;;;;;;;8.55;6.50;;;23.50;98.20;;;;;;5070646;28;20440;-76
2021/07/21 03:36:52;;;;;;;9.43;6.15;;;23.50;98.00;;;;;;5070815;28;20040;-76
2021/07/21 03:39:18;;;;;;;7.20;5.88;;;23.40;98.10;;;;;;5070923;28;20024;-76
2021/07/21 03:41:47;;;;;;;8.48;6.35;;;23.40;98.10;;;;;;5070428;28;20032;-75
2021/07/21 03:44:13;;;;;;;7.30;5.97;;;23.40;98.10;;;;;;5069435;28;20032;-76
2021/07/21 03:46:40;;;;;;;9.05;6.45;;;23.40;98.20;;;;;;5070458;28;20416;-75
2021/07/21 03:49:07;;;;;;;9.15;6.95;;;23.40;98.20;;;;;;5070790;28;20016;-76
2021/07/21 03:51:34;;;;;;;8.70;7.07;;;23.40;98.30;;;;;;5070588;28;20111;-76
2021/07/21 03:54:02;;;;;;;7.97;6.47;;;23.40;98.20;;;;;;5071035;28;20115;-75
2021/07/21 03:56:29;;;;;;;9.45;6.90;;;23.40;98.20;;;;;;5074311;28;20024;-76
2021/07/21 03:58:55;;;;;;;9.02;6.90;;;23.40;98.30;;;;;;5074869;28;20082;-76
2021/07/21 04:01:22;;;;;;;7.53;6.05;;;23.40;98.30;;;;;;5074293;28;20029;-78
2021/07/21 04:03:49;;;;;;;7.43;5.85;;;23.40;98.30;;;;;;5074157;28;20028;-77
2021/07/21 04:06:18;;;;;;;9.35;6.43;;;23.40;98.20;;;;;;5074256;28;20431;-78
2021/07/21 04:08:44;;;;;;;9.10;6.55;;;23.40;98.20;;;;;;5072322;28;20029;-78
2021/07/21 04:11:14;;;;;;;9.52;6.00;;;23.40;98.00;;;;;;5074175;28;20024;-78
2021/07/21 04:13:43;;;;;;;8.48;6.00;;;23.40;97.90;;;;;;5073716;28;20041;-77
2021/07/21 04:16:12;;;;;;;8.82;6.85;;;23.40;97.90;;;;;;5073975;28;20388;-78
2021/07/21 04:18:39;;;;;;;7.93;6.18;;;23.40;97.80;;;;;;5071934;28;20040;-75
2021/07/21 04:21:09;;;;;;;9.80;6.32;;;23.30;97.90;;;;;;5054056;28;20404;-78
2021/07/21 04:23:39;;;;;;;8.52;6.40;;;23.30;98.00;;;;;;5064181;28;20033;-78
2021/07/21 04:26:05;;;;;;;8.63;6.95;;;23.30;97.90;;;;;;5073583;28;20035;-77
2021/07/21 04:28:33;;;;;;;8.55;6.80;;;23.30;97.90;;;;;;5073141;28;20484;-78
2021/07/21 04:30:59;;;;;;;8.68;6.22;;;23.30;98.00;;;;;;5073981;28;20029;-78
2021/07/21 04:33:25;;;;;;;8.48;6.28;;;23.30;97.90;;;;;;5073681;28;20434;-77
2021/07/21 04:35:53;;;;;;;8.23;6.70;;;23.30;97.90;;;;;;5073164;28;20020;-78
2021/07/21 04:38:19;;;;;;;8.40;6.75;;;23.30;97.90;;;;;;5073890;28;20040;-75
2021/07/21 04:40:47;;;;;;;8.25;6.90;;;23.30;97.90;;;;;;5073511;28;20047;-75
2021/07/21 04:43:13;;;;;;;8.38;6.53;;;23.30;97.80;;;;;;5073099;28;20504;-76
2021/07/21 04:45:43;;;;;;;8.40;6.13;;;23.30;97.80;;;;;;5073424;28;20016;-76
2021/07/21 04:48:14;;;;;;;10.63;6.80;;;23.30;97.80;;;;;;5072820;28;20120;-75
2021/07/21 04:50:44;;;;;;;7.68;6.18;;;23.30;97.80;;;;;;5073302;28;20031;-75
2021/07/21 04:53:11;;;;;;;9.50;6.78;;;23.30;97.80;;;;;;5072965;28;20028;-75
2021/07/21 04:55:37;;;;;;;10.30;7.20;;;23.30;97.80;;;;;;5072432;28;20032;-75
2021/07/21 04:58:03;;;;;;;8.52;6.43;;;23.30;97.90;;;;;;5073438;28;20516;-75
2021/07/21 05:00:29;;;;;;;7.57;6.25;;;23.30;97.70;;;;;;5072345;28;20063;-75
2021/07/21 05:02:57;;;;;;;8.57;6.00;;;23.30;97.90;;;;;;5072323;28;20020;-78
2021/07/21 05:05:23;;;;;;;9.70;6.30;;;23.30;97.90;;;;;;5071926;28;20029;-75
2021/07/21 05:07:49;;;;;;;9.40;6.88;;;23.30;97.80;;;;;;5072376;28;20427;-78
2021/07/21 05:10:15;;;;;;;9.50;6.55;;;23.20;97.80;;;;;;5071349;28;20082;-78
2021/07/21 05:12:44;;;;;;;8.88;6.35;;;23.30;97.70;;;;;;5071835;28;20122;-75
2021/07/21 05:15:11;;;;;;;9.55;7.55;;;23.20;97.80;;;;;;5071664;28;20023;-78
2021/07/21 05:17:37;;;;;;;8.30;6.35;;;23.20;97.80;;;;;;5071131;28;20106;-78
2021/07/21 05:20:05;;;;;;;13.57;9.02;;;23.20;97.70;;;;;;5073001;28;20052;-79
2021/07/21 05:22:30;;;;;;;24.52;14.40;;;23.20;96.50;;;;;;5071208;28;20020;-82
2021/07/21 05:24:56;;;;;;;21.17;15.25;;;23.00;94.90;;;;;;5076213;28;20380;-79
2021/07/21 05:27:22;;;;;;;24.25;16.55;;;22.80;94.90;;;;;;5087515;28;20070;-83
2021/07/21 05:29:48;;;;;;;26.40;17.58;;;22.60;95.40;;;;;;5072282;28;20031;-80
2021/07/21 05:32:13;;;;;;;24.20;15.35;;;22.50;95.60;;;;;;5072890;28;20051;-81
2021/07/21 05:34:39;;;;;;;27.95;16.17;;;22.40;95.80;;;;;;5072506;28;20384;-81
2021/07/21 05:37:05;;;;;;;27.30;18.42;;;22.30;95.90;;;;;;5072572;28;20027;-82
2021/07/21 05:39:30;;;;;;;23.35;15.90;;;22.30;95.70;;;;;;5072474;28;20025;-76
2021/07/21 05:41:56;;;;;;;26.65;16.63;;;22.30;95.90;;;;;;5072873;28;20048;-79
2021/07/21 05:44:23;;;;;;;30.95;18.02;;;22.20;95.80;;;;;;5072648;28;20025;-80
2021/07/21 05:46:49;;;;;;;25.42;17.25;;;22.30;95.90;;;;;;5072393;28;20066;-82
2021/07/21 05:49:14;;;;;;;27.15;18.58;;;22.20;96.00;;;;;;5072243;28;20104;-81
2021/07/21 05:51:40;;;;;;;31.65;19.13;;;22.20;96.30;;;;;;5071437;28;20042;-80
2021/07/21 05:54:06;;;;;;;30.08;19.38;;;22.20;96.20;;;;;;5072388;28;20025;-83
2021/07/21 05:56:33;;;;;;;34.03;19.48;;;22.10;96.30;;;;;;5072032;28;20021;-76
2021/07/21 05:58:59;;;;;;;34.80;19.65;;;22.10;96.50;;;;;;5072295;28;20104;-79
2021/07/21 06:01:25;;;;;;;29.58;19.65;;;22.10;96.50;;;;;;5072323;28;20111;-82
2021/07/21 06:03:50;;;;;;;34.20;19.77;;;22.00;96.50;;;;;;5071688;28;20020;-82
2021/07/21 06:06:16;;;;;;;31.08;19.75;;;22.10;96.70;;;;;;5071943;28;20394;-83
2021/07/21 06:08:42;;;;;;;39.80;20.25;;;22.10;96.90;;;;;;5071662;28;20111;-82
2021/07/21 06:11:09;;;;;;;38.13;19.35;;;22.10;97.20;;;;;;5069826;28;20115;-83
2021/07/21 06:13:35;;;;;;;39.20;21.17;;;22.10;97.30;;;;;;5071219;28;20039;-88
2021/07/21 06:16:06;;;;;;;37.30;20.83;;;22.10;97.70;;;;;;5072297;28;20020;-82
2021/07/21 06:18:32;;;;;;;29.77;18.55;;;22.10;97.90;;;;;;5077076;28;20021;-75
2021/07/21 06:20:58;;;;;;;39.80;21.27;;;22.10;98.30;;;;;;5074931;28;20021;-78
2021/07/21 06:23:23;;;;;;;33.22;18.38;;;22.10;98.90;;;;;;5072305;28;20100;-74
2021/07/21 06:25:49;;;;;;;34.65;21.33;;;22.10;98.70;;;;;;5071206;28;20020;-74
2021/07/21 06:28:16;;;;;;;29.02;18.40;;;22.20;98.70;;;;;;5070511;28;20032;-74
2021/07/21 06:30:42;;;;;;;30.27;18.98;;;22.20;98.60;;;;;;5069601;28;20029;-75
2021/07/21 06:33:07;;;;;;;37.78;20.95;;;22.20;98.60;;;;;;5071269;28;20040;-74
2021/07/21 06:35:33;;;;;;;34.30;21.77;;;22.20;98.60;;;;;;5070836;28;20020;-79
2021/07/21 06:37:59;;;;;;;37.67;21.35;;;22.30;98.60;;;;;;5071979;28;20430;-76
2021/07/21 06:40:24;;;;;;;37.60;21.98;;;22.30;98.50;;;;;;5072344;28;20361;-76
2021/07/21 06:42:50;;;;;;;33.03;20.80;;;22.40;98.50;;;;;;5070926;28;20021;-76
2021/07/21 06:45:16;;;;;;;33.10;20.80;;;22.40;98.40;;;;;;5072304;28;20051;-76
2021/07/21 06:47:41;;;;;;;29.10;19.67;;;22.30;98.30;;;;;;5071435;28;20074;-84
2021/07/21 06:50:08;;;;;;;29.92;19.55;;;22.40;98.30;;;;;;5070983;28;20103;-80
2021/07/21 06:52:33;;;;;;;28.88;18.33;;;22.40;98.20;;;;;;5071030;28;20024;-80
2021/07/21 06:54:59;;;;;;;29.63;19.05;;;22.40;98.20;;;;;;5070934;28;20035;-78
2021/07/21 06:57:24;;;;;;;26.17;17.77;;;22.40;98.20;;;;;;5071054;28;20031;-83
2021/07/21 06:59:50;;;;;;;26.40;18.65;;;22.40;98.10;;;;;;5070646;28;20047;-83
2021/07/21 07:02:16;;;;;;;26.83;17.77;;;22.40;98.10;;;;;;5071151;28;20828;-78
2021/07/21 07:04:41;;;;;;;23.05;16.45;;;22.40;98.10;;;;;;5070186;28;20027;-84
2021/07/21 07:07:07;;;;;;;28.65;17.40;;;22.50;98.40;;;;;;5069851;28;20080;-84
2021/07/21 07:09:33;;;;;;;21.17;15.95;;;22.50;98.10;;;;;;5069603;28;20392;-83
2021/07/21 07:11:58;;;;;;;24.27;16.98;;;22.50;98.00;;;;;;5071057;28;20036;-84
2021/07/21 07:14:24;;;;;;;24.15;16.88;;;22.50;98.00;;;;;;5071073;28;20021;-83
2021/07/21 07:16:49;;;;;;;21.67;16.33;;;22.50;98.00;;;;;;5071129;28;20025;-77
2021/07/21 07:19:15;;;;;;;23.90;15.52;;;22.50;97.90;;;;;;5071040;28;20081;-76
2021/07/21 07:21:41;;;;;;;22.85;17.70;;;22.60;98.00;;;;;;5069456;28;20024;-81
2021/07/21 07:24:07;;;;;;;22.20;15.98;;;22.60;97.90;;;;;;5071000;28;20024;-76
2021/07/21 07:26:34;;;;;;;25.55;16.33;;;22.50;97.90;;;;;;5070452;28;20028;-83
2021/07/21 07:29:01;;;;;;;22.95;15.95;;;22.60;97.90;;;;;;5073495;28;20024;-84
2021/07/21 07:31:27;;;;;;;25.55;15.75;;;22.60;97.90;;;;;;5075103;28;20036;-84
2021/07/21 07:33:52;;;;;;;20.05;15.88;;;22.60;97.80;;;;;;5075041;28;20036;-84
2021/07/21 07:36:18;;;;;;;24.20;17.20;;;22.60;97.80;;;;;;5074944;28;20024;-81
2021/07/21 07:38:44;;;;;;;24.48;16.95;;;22.60;97.80;;;;;;5074700;28;20582;-82
2021/07/21 07:41:10;;;;;;;21.90;15.65;;;22.60;97.80;;;;;;5074911;28;20503;-80
2021/07/21 07:43:38;;;;;;;21.98;14.77;;;22.60;97.80;;;;;;5073279;28;20035;-83
2021/07/21 07:46:05;;;;;;;21.50;16.33;;;22.60;97.80;;;;;;5074750;28;20048;-77
2021/07/21 07:48:31;;;;;;;22.52;15.00;;;22.60;97.80;;;;;;5074544;28;20032;-78
2021/07/21 07:50:56;;;;;;;23.42;14.77;;;22.60;97.80;;;;;;5074949;28;20020;-84
2021/07/21 07:53:22;;;;;;;19.27;14.93;;;22.60;97.80;;;;;;5074908;28;20048;-83
2021/07/21 07:55:48;;;;;;;18.55;14.10;;;22.60;97.80;;;;;;5074401;28;20027;-84
2021/07/21 07:58:13;;;;;;;20.10;14.63;;;22.70;97.80;;;;;;5074546;28;20035;-83
2021/07/21 08:00:39;;;;;;;21.25;15.32;;;22.70;97.80;;;;;;5074383;28;20442;-85
2021/07/21 08:03:05;;;;;;;21.50;15.05;;;22.60;97.80;;;;;;5074286;28;20024;-82
2021/07/21 08:05:31;;;;;;;20.33;14.02;;;22.70;97.80;;;;;;5074192;28;20484;-78
2021/07/21 08:07:57;;;;;;;19.65;14.85;;;22.70;97.70;;;;;;5073270;28;20119;-84
2021/07/21 08:10:23;;;;;;;21.77;14.70;;;22.60;97.70;;;;;;5074555;28;20020;-79
2021/07/21 08:12:49;;;;;;;20.35;14.50;;;22.70;97.60;;;;;;5073890;28;20066;-83
2021/07/21 08:15:15;;;;;;;17.83;13.25;;;22.70;97.50;;;;;;5072865;28;20092;-80
2021/07/21 08:17:41;;;;;;;19.77;14.60;;;22.70;97.50;;;;;;5073874;28;20043;-81
2021/07/21 08:20:08;;;;;;;19.52;14.63;;;22.70;97.40;;;;;;5074176;28;20619;-84
2021/07/21 08:22:41;;;;;;;18.63;13.82;;;22.70;97.40;;;;;;5074187;28;20024;-84
2021/07/21 08:25:10;;;;;;;19.15;14.15;;;22.70;97.30;;;;;;5074133;28;20016;-85
2021/07/21 08:27:36;;;;;;;19.45;14.30;;;22.70;97.30;;;;;;5073873;28;20017;-84
2021/07/21 08:30:05;;;;;;;20.55;13.98;;;22.70;97.30;;;;;;5073818;28;20039;-83
2021/07/21 08:32:31;;;;;;;19.73;15.13;;;22.70;97.30;;;;;;5073817;28;20075;-84
2021/07/21 08:34:56;;;;;;;19.17;14.68;;;22.70;97.30;;;;;;5073915;28;20012;-83
2021/07/21 08:37:22;;;;;;;20.15;13.82;;;22.70;97.30;;;;;;5074181;28;20463;-80
2021/07/21 08:39:48;;;;;;;19.25;13.00;;;22.70;97.30;;;;;;5072645;28;20025;-82
2021/07/21 08:42:14;;;;;;;19.42;14.02;;;22.80;97.30;;;;;;5073568;28;20031;-77
2021/07/21 08:44:40;;;;;;;18.27;14.02;;;22.80;97.30;;;;;;5073507;28;20427;-81
2021/07/21 08:47:10;;;;;;;17.05;13.50;;;22.80;97.20;;;;;;5073550;28;20025;-81
2021/07/21 08:49:36;;;;;;;18.45;13.00;;;22.70;97.20;;;;;;5073785;28;20475;-85
2021/07/21 08:52:03;;;;;;;17.42;13.52;;;22.80;97.20;;;;;;5073581;28;20060;-84
2021/07/21 08:54:29;;;;;;;17.88;13.02;;;22.80;97.20;;;;;;5073254;28;20028;-84
2021/07/21 08:56:57;;;;;;;17.80;13.60;;;22.80;97.20;;;;;;5073580;28;20028;-84
2021/07/21 08:59:24;;;;;;;16.45;13.43;;;22.70;97.10;;;;;;5073661;28;20040;-84
2021/07/21 09:01:50;;;;;;;16.45;13.45;;;22.80;97.10;;;;;;5073291;28;20017;-76
2021/07/21 09:04:16;;;;;;;16.60;12.82;;;22.80;97.10;;;;;;5073177;28;20396;-77
2021/07/21 09:06:42;;;;;;;17.08;13.70;;;22.80;97.10;;;;;;5073087;28;20025;-82
2021/07/21 09:09:08;;;;;;;18.00;13.43;;;22.80;97.10;;;;;;5073160;28;20032;-81
2021/07/21 09:11:37;;;;;;;16.92;13.50;;;22.80;97.10;;;;;;5072627;28;20044;-79
2021/07/21 09:14:04;;;;;;;16.50;13.00;;;22.80;97.10;;;;;;5073359;28;20036;-79
2021/07/21 09:16:29;;;;;;;17.65;13.25;;;22.80;97.10;;;;;;5072947;28;20029;-85
2021/07/21 09:18:58;;;;;;;16.40;13.25;;;22.80;97.10;;;;;;5073272;28;20031;-80
2021/07/21 09:21:25;;;;;;;15.13;12.25;;;22.80;97.10;;;;;;5072979;28;20496;-84
2021/07/21 09:23:57;;;;;;;16.63;12.55;;;22.80;97.00;;;;;;5074218;28;20017;-82
2021/07/21 09:26:23;;;;;;;18.20;13.18;;;22.80;97.00;;;;;;5073245;28;20115;-80
2021/07/21 09:28:50;;;;;;;15.95;13.23;;;22.90;97.00;;;;;;5072676;28;20100;-82
2021/07/21 09:31:35;;;;;;;17.92;13.07;;;22.80;97.00;;;;;;5072770;28;20078;-84
2021/07/21 09:34:34;;;;;;;17.38;12.88;;;22.90;97.00;;;;;;5072707;28;20556;-83
2021/07/21 09:37:12;;;;;;;15.88;12.55;;;22.90;97.00;;;;;;5068694;28;20037;-81
2021/07/21 09:39:40;;;;;;;16.95;13.80;;;22.80;96.90;;;;;;5072590;28;20028;-82
2021/07/21 09:42:07;;;;;;;16.92;12.68;;;22.90;97.30;;;;;;5072698;28;20028;-80
2021/07/21 09:44:34;;;;;;;16.92;13.10;;;22.90;96.90;;;;;;5072013;28;20400;-83
2021/07/21 09:47:15;;;;;;;15.32;12.85;;;22.80;96.90;;;;;;5072508;28;20028;-84
2021/07/21 09:49:42;;;;;;;16.42;13.10;;;22.90;96.90;;;;;;5072074;28;20370;-85
2021/07/21 09:52:21;;;;;;;14.43;12.23;;;22.90;96.90;;;;;;5071242;28;20033;-84
2021/07/21 09:55:12;;;;;;;15.27;12.70;;;22.90;96.90;;;;;;5072201;28;20116;-84
2021/07/21 09:57:39;;;;;;;16.48;12.65;;;22.90;96.90;;;;;;5072048;28;20031;-84
2021/07/21 10:00:25;;;;;;;16.95;13.13;;;22.90;96.90;;;;;;5072211;28;20033;-84
2021/07/21 10:03:04;;;;;;;17.17;13.07;;;22.90;96.90;;;;;;5071813;28;20031;-83
2021/07/21 10:05:30;;;;;;;16.38;12.32;;;22.90;96.90;;;;;;5072028;28;20119;-84
2021/07/21 10:08:02;;;;;;;15.85;12.38;;;22.90;96.80;;;;;;5072175;28;20063;-84
2021/07/21 10:10:29;;;;;;;15.05;11.80;;;22.90;96.80;;;;;;5071690;28;20103;-84
2021/07/21 10:13:00;;;;;;;14.18;11.43;;;22.90;96.80;;;;;;5071915;28;20036;-84
2021/07/21 10:15:26;;;;;;;14.65;11.90;;;22.90;96.80;;;;;;5072212;28;20100;-83
2021/07/21 10:18:12;;;;;;;15.63;11.77;;;22.90;96.80;;;;;;5072163;28;20392;-81
2021/07/21 10:20:40;;;;;;;14.38;11.90;;;23.00;96.80;;;;;;5071405;28;20032;-83
2021/07/21 10:23:07;;;;;;;17.08;12.45;;;22.90;96.80;;;;;;5071818;28;20527;-84
2021/07/21 10:25:36;;;;;;;13.80;11.43;;;22.90;96.80;;;;;;5071528;28;20500;-82
2021/07/21 10:28:03;;;;;;;15.32;11.93;;;23.00;96.80;;;;;;5071455;28;20021;-84
2021/07/21 10:30:31;;;;;;;16.27;12.32;;;23.00;96.80;;;;;;5069910;28;20054;-84
2021/07/21 10:32:57;;;;;;;14.52;11.00;;;23.00;96.80;;;;;;5071812;28;20044;-82
2021/07/21 10:35:24;;;;;;;14.98;11.45;;;23.00;96.80;;;;;;5071874;28;20025;-84
2021/07/21 10:37:52;;;;;;;13.95;11.23;;;23.00;96.70;;;;;;5071287;28;20388;-81
2021/07/21 10:40:22;;;;;;;14.55;11.40;;;23.00;96.80;;;;;;5071484;28;20044;-83
2021/07/21 10:42:51;;;;;;;15.25;12.18;;;23.00;96.70;;;;;;5071129;28;20033;-84
2021/07/21 10:45:22;;;;;;;16.00;12.05;;;23.00;96.80;;;;;;5071548;28;20406;-78
2021/07/21 10:47:48;;;;;;;14.80;11.43;;;23.00;96.70;;;;;;5071131;28;20496;-84
2021/07/21 10:53:35;;;;;;;15.00;12.15;;;23.00;96.70;;;;;;5071251;28;20043;-84
2021/07/21 10:59:11;;;;;;;16.05;11.85;;;23.00;96.70;;;;;;5071551;28;20048;-83
2021/07/21 11:01:40;;;;;;;14.05;11.57;;;23.00;96.70;;;;;;5071094;28;20477;-83
2021/07/21 11:04:06;;;;;;;14.63;11.32;;;23.00;97.00;;;;;;5070798;28;20445;-85
2021/07/21 11:06:49;;;;;;;14.45;10.73;;;23.00;96.70;;;;;;5071188;28;20032;-82
2021/07/21 11:09:25;;;;;;;12.43;10.18;;;23.00;96.70;;;;;;5071103;28;20104;-82
2021/07/21 11:11:57;;;;;;;13.57;10.63;;;23.00;96.70;;;;;;5070779;28;20043;-81
2021/07/21 11:14:30;;;;;;;14.80;10.98;;;23.00;96.70;;;;;;5071321;28;20053;-83
2021/07/21 11:17:09;;;;;;;12.43;10.13;;;23.10;96.70;;;;;;5071153;28;20032;-82
2021/07/21 11:19:48;;;;;;;12.68;10.68;;;23.10;96.70;;;;;;5070917;28;20029;-83
2021/07/21 11:22:19;;;;;;;13.95;10.90;;;23.10;96.80;;;;;;5071029;28;20369;-80
2021/07/21 11:25:08;;;;;;;13.45;10.80;;;23.10;96.80;;;;;;5070824;28;20029;-83
2021/07/21 11:27:40;;;;;;;12.73;10.77;;;23.10;96.80;;;;;;5070901;28;20016;-80
2021/07/21 11:30:35;;;;;;;13.95;11.57;;;23.10;96.80;;;;;;5071022;28;20049;-83
2021/07/21 11:33:38;;;;;;;13.27;10.20;;;23.10;96.70;;;;;;5062833;28;20049;-81
2021/07/21 11:36:04;;;;;;;13.68;10.52;;;23.10;96.80;;;;;;5071031;28;20078;-83
2021/07/21 11:38:45;;;;;;;13.10;10.75;;;23.10;96.80;;;;;;5069428;28;20074;-82
2021/07/21 11:41:31;;;;;;;13.25;10.48;;;23.10;96.70;;;;;;5070630;28;20051;-79
2021/07/21 11:44:03;;;;;;;14.00;11.73;;;23.10;96.70;;;;;;5070697;28;20071;-82
2021/07/21 11:46:29;;;;;;;14.32;10.27;;;23.10;96.70;;;;;;5070662;28;20048;-82
2021/07/21 11:48:54;;;;;;;12.45;9.98;;;23.10;96.70;;;;;;5069725;28;20476;-81
2021/07/21 11:51:20;;;;;;;12.65;10.82;;;23.20;96.80;;;;;;5069544;28;20032;-83
2021/07/21 11:53:47;;;;;;;14.63;10.50;;;23.10;96.70;;;;;;5070345;28;20351;-83
2021/07/21 11:56:15;;;;;;;12.40;9.95;;;23.20;96.80;;;;;;5070568;28;20040;-84
2021/07/21 11:58:40;;;;;;;13.05;10.23;;;23.20;96.80;;;;;;5070434;28;20030;-84
2021/07/21 12:01:06;;;;;;;13.02;11.00;;;23.20;96.80;;;;;;5070755;28;20096;-83
2021/07/21 12:03:48;;;;;;;13.23;10.15;;;23.20;96.80;;;;;;5070304;28;20016;-85
2021/07/21 12:06:25;;;;;;;13.60;10.77;;;23.20;96.80;;;;;;5070420;28;20066;-83
2021/07/21 12:08:54;;;;;;;11.73;9.20;;;23.20;96.80;;;;;;5070385;28;20021;-83
2021/07/21 12:11:26;;;;;;;12.80;9.82;;;23.20;96.80;;;;;;5070508;28;20028;-84
2021/07/21 12:14:03;;;;;;;14.10;10.95;;;23.20;96.80;;;;;;5070860;28;20040;-84
2021/07/21 12:16:31;;;;;;;12.45;9.82;;;23.20;96.80;;;;;;5073114;28;20025;-84
2021/07/21 12:18:59;;;;;;;13.90;10.55;;;23.20;96.80;;;;;;5072968;28;20496;-85
2021/07/21 12:21:28;;;;;;;12.05;9.77;;;23.20;96.80;;;;;;5074104;28;20439;-79
2021/07/21 12:24:02;;;;;;;12.43;10.18;;;23.20;96.80;;;;;;5074449;28;20020;-82
2021/07/21 12:26:42;;;;;;;13.50;10.50;;;23.30;96.80;;;;;;5073852;28;20078;-83
2021/07/21 12:29:08;;;;;;;11.90;9.48;;;23.20;96.80;;;;;;5074309;28;20151;-83
2021/07/21 12:31:34;;;;;;;11.20;9.95;;;23.30;96.80;;;;;;5075866;28;20480;-81
2021/07/21 12:34:14;;;;;;;11.82;9.20;;;23.30;96.80;;;;;;5073790;28;20398;-84
2021/07/21 12:36:49;;;;;;;13.07;9.85;;;23.30;96.80;;;;;;5073841;28;20021;-84
2021/07/21 12:39:25;;;;;;;11.98;9.98;;;23.30;96.80;;;;;;5073845;28;20024;-84
2021/07/21 12:41:51;;;;;;;;;;;23.30;96.80;;;;;;5074204;28;20139;-84
2021/07/21 12:44:19;;;;;;;12.43;9.30;;;23.30;96.80;;;;;;5073582;28;20031;-84
2021/07/21 12:46:45;;;;;;;12.25;9.27;;;23.30;97.10;;;;;;5073619;28;20047;-84
2021/07/21 12:49:12;;;;;;;11.05;9.00;;;23.30;96.70;;;;;;5073888;28;20051;-84
2021/07/21 12:51:38;;;;;;;13.05;10.70;;;23.30;96.70;;;;;;5073577;28;20103;-84
2021/07/21 12:54:06;;;;;;;13.10;10.23;;;23.30;96.80;;;;;;5073348;28;20385;-83
2021/07/21 12:56:32;;;;;;;11.90;9.70;;;23.30;96.70;;;;;;5073368;28;20025;-81